Time;durP1;ratioP1;P1;durP2;ratioP2;P2;SDS_P1;SDS_P2;PMS_P1;PMS_P2;Temp;Humidity;BMP_temperature;BMP_pressure;BME280_temperature;BME280_humidity;BME280_pressure;Samples;Min_cycle;Max_cycle;Signal;HPM_P1;HPM_P2
2024/04/06 00:00:28;;;;;;;2.88;1.50;;;12.50;99.90;;;;;;4844818;29;20295;-86
2024/04/06 00:02:55;;;;;;;4.13;1.67;;;12.50;99.90;;;;;;4829223;29;20510;-83
2024/04/06 00:05:20;;;;;;;2.88;1.20;;;12.50;99.90;;;;;;4829718;29;20181;-83
2024/04/06 00:07:46;;;;;;;5.63;1.45;;;12.50;99.90;;;;;;4844726;29;20192;-89
2024/04/06 00:10:12;;;;;;;4.13;1.65;;;12.50;99.90;;;;;;4839302;29;20552;-84
2024/04/06 00:12:38;;;;;;;2.33;1.30;;;12.50;99.90;;;;;;4845892;29;20221;-84
2024/04/06 00:15:04;;;;;;;3.22;1.60;;;12.50;99.90;;;;;;4855667;29;20278;-85
2024/04/06 00:17:30;;;;;;;6.00;1.67;;;12.50;99.90;;;;;;4844386;29;20181;-84
2024/04/06 00:19:55;;;;;;;2.13;1.33;;;12.50;99.90;;;;;;4844733;29;20212;-87
2024/04/06 00:22:22;;;;;;;4.70;1.75;;;12.50;99.90;;;;;;4844578;29;20193;-88
2024/04/06 00:24:48;;;;;;;5.10;1.48;;;12.50;99.90;;;;;;4844770;29;20617;-86
2024/04/06 00:27:13;;;;;;;4.07;1.30;;;12.50;99.90;;;;;;4844398;29;20209;-87
2024/04/06 00:29:39;;;;;;;2.35;1.45;;;12.50;99.90;;;;;;4844922;29;20276;-93
2024/04/06 00:32:05;;;;;;;2.70;1.30;;;12.50;99.90;;;;;;4860061;29;20189;-83
2024/04/06 00:34:32;;;;;;;2.63;1.75;;;12.50;99.90;;;;;;4847680;29;20180;-91
2024/04/06 00:37:01;;;;;;;2.13;1.30;;;12.50;99.90;;;;;;4847691;29;20593;-91
2024/04/06 00:39:27;;;;;;;5.97;1.88;;;12.50;99.90;;;;;;4848057;29;20236;-92
2024/04/06 00:41:52;;;;;;;3.75;1.40;;;12.50;99.90;;;;;;4864408;29;20217;-88
2024/04/06 00:44:30;;;;;;;4.95;1.95;;;12.50;99.90;;;;;;4863269;29;20276;-90
2024/04/06 00:47:01;;;;;;;3.35;1.73;;;12.50;99.90;;;;;;4834777;29;20241;-91
2024/04/06 00:49:28;;;;;;;3.88;1.55;;;12.50;99.90;;;;;;4829560;29;20268;-89
2024/04/06 00:51:54;;;;;;;1.88;1.48;;;12.50;99.90;;;;;;4829010;29;20280;-84
2024/04/06 00:54:21;;;;;;;5.65;1.80;;;12.50;99.90;;;;;;4845447;29;20261;-91
2024/04/06 00:56:49;;;;;;;3.40;1.50;;;12.40;99.90;;;;;;4844315;29;20181;-91
2024/04/06 00:59:18;;;;;;;3.40;1.45;;;12.50;99.90;;;;;;4828875;29;20253;-87
2024/04/06 01:01:44;;;;;;;3.70;1.45;;;12.40;99.90;;;;;;4828493;29;20216;-90
2024/04/06 01:06:45;;;;;;;3.65;1.75;;;12.40;99.90;;;;;;4864981;23;20248;-80
2024/04/06 01:09:11;;;;;;;3.28;1.70;;;12.40;99.90;;;;;;4861756;29;20189;-82
2024/04/06 01:11:38;;;;;;;4.97;1.40;;;12.40;99.90;;;;;;4855965;29;20264;-82
2024/04/06 01:14:04;;;;;;;5.63;1.48;;;12.40;99.90;;;;;;4844259;29;20208;-81
2024/04/06 01:16:30;;;;;;;4.28;1.45;;;12.40;99.90;;;;;;4858565;29;20297;-83
2024/04/06 01:18:55;;;;;;;3.65;1.42;;;12.40;99.90;;;;;;4862729;29;20217;-81
2024/04/06 01:21:21;;;;;;;2.83;1.38;;;12.40;99.90;;;;;;4862568;29;20223;-85
2024/04/06 01:23:51;;;;;;;2.72;1.52;;;12.40;99.90;;;;;;4845933;29;20181;-82
2024/04/06 01:26:17;;;;;;;2.83;1.40;;;12.40;99.90;;;;;;4862852;29;20623;-81
2024/04/06 01:28:42;;;;;;;7.72;1.48;;;12.50;99.90;;;;;;4862793;29;20176;-82
2024/04/06 01:31:09;;;;;;;1.95;1.30;;;12.50;99.90;;;;;;4862891;29;20726;-87
2024/04/06 01:33:35;;;;;;;3.00;1.30;;;12.50;99.90;;;;;;4862560;29;20180;-82
2024/04/06 01:36:00;;;;;;;2.47;1.50;;;12.50;99.90;;;;;;4862795;29;20651;-83
2024/04/06 01:38:26;;;;;;;2.00;1.10;;;12.60;99.90;;;;;;4862634;29;20177;-81
2024/04/06 01:40:52;;;;;;;6.35;1.65;;;12.60;99.90;;;;;;4862377;29;20594;-82
2024/04/06 01:43:17;;;;;;;3.70;1.63;;;12.50;99.90;;;;;;4862679;29;20256;-83
2024/04/06 01:45:43;;;;;;;1.50;1.15;;;12.50;99.90;;;;;;4845902;29;20200;-83
2024/04/06 01:48:09;;;;;;;3.47;1.50;;;12.50;99.90;;;;;;4861794;29;20192;-81
2024/04/06 01:50:35;;;;;;;2.72;1.35;;;12.50;99.90;;;;;;4862915;29;20193;-86
2024/04/06 01:53:01;;;;;;;2.63;1.35;;;12.50;99.90;;;;;;4846901;29;20260;-86
2024/04/06 01:55:27;;;;;;;1.73;1.30;;;12.50;99.90;;;;;;4862305;29;20237;-83
2024/04/06 01:57:56;;;;;;;3.67;1.48;;;12.50;99.90;;;;;;4862500;29;20237;-87
2024/04/06 02:00:21;;;;;;;2.20;1.38;;;12.50;99.90;;;;;;4862601;29;20207;-88
2024/04/06 02:02:47;;;;;;;3.20;1.45;;;12.40;99.90;;;;;;4862312;29;20523;-88
2024/04/06 02:05:13;;;;;;;3.00;1.45;;;12.40;99.90;;;;;;4867836;29;20766;-85
2024/04/06 02:07:39;;;;;;;3.22;1.15;;;12.40;99.90;;;;;;4864097;29;20211;-83
2024/04/06 02:10:05;;;;;;;3.63;1.42;;;12.40;99.90;;;;;;4880792;29;20172;-85
2024/04/06 02:12:31;;;;;;;2.90;1.55;;;12.40;99.90;;;;;;4862367;29;20195;-82
2024/04/06 02:14:57;;;;;;;2.63;1.40;;;12.40;99.90;;;;;;4862414;29;20184;-81
2024/04/06 02:17:22;;;;;;;2.53;1.10;;;12.40;99.90;;;;;;4845416;29;20213;-85
2024/04/06 02:19:48;;;;;;;2.67;1.25;;;12.40;99.90;;;;;;4845834;29;20517;-83
2024/04/06 02:22:13;;;;;;;2.97;1.65;;;12.40;99.90;;;;;;4845891;29;20536;-83
2024/04/06 02:24:40;;;;;;;3.22;1.40;;;12.30;99.90;;;;;;4862244;29;20188;-82
2024/04/06 02:27:07;;;;;;;3.78;1.50;;;12.30;99.90;;;;;;4862032;29;20248;-85
2024/04/06 02:29:33;;;;;;;1.63;1.15;;;12.20;99.90;;;;;;4862417;29;20160;-84
2024/04/06 02:31:58;;;;;;;4.18;1.48;;;12.20;99.90;;;;;;4861279;29;20192;-84
2024/04/06 02:34:24;;;;;;;2.38;1.40;;;12.10;99.90;;;;;;4845675;29;20188;-88
2024/04/06 02:36:50;;;;;;;6.22;1.65;;;12.10;99.90;;;;;;4862152;29;20685;-84
2024/04/06 02:39:15;;;;;;;3.17;1.58;;;12.00;99.90;;;;;;4862315;29;20247;-86
2024/04/06 02:41:41;;;;;;;3.70;1.50;;;12.00;99.90;;;;;;4845807;29;20220;-86
2024/04/06 02:44:07;;;;;;;4.85;1.42;;;11.90;99.90;;;;;;4845868;29;20215;-82
2024/04/06 02:46:33;;;;;;;3.75;1.55;;;11.90;99.90;;;;;;4862148;29;20196;-85
2024/04/06 02:48:59;;;;;;;4.20;1.23;;;11.80;99.90;;;;;;4861679;29;20165;-85
2024/04/06 02:51:25;;;;;;;3.88;1.50;;;11.80;99.90;;;;;;4845693;29;20185;-83
2024/04/06 02:53:51;;;;;;;3.92;1.58;;;11.90;99.90;;;;;;4861914;29;20180;-85
2024/04/06 02:56:16;;;;;;;4.28;1.60;;;11.90;99.90;;;;;;4845591;29;20564;-87
2024/04/06 02:58:42;;;;;;;1.88;1.30;;;11.90;99.90;;;;;;4845543;29;20185;-81
2024/04/06 03:01:08;;;;;;;3.42;1.50;;;11.90;99.90;;;;;;4845531;29;20223;-84
2024/04/06 03:03:34;;;;;;;4.20;1.63;;;11.90;99.90;;;;;;4844836;29;20193;-85
2024/04/06 03:06:00;;;;;;;3.25;1.50;;;11.80;99.90;;;;;;4861878;29;20243;-85
2024/04/06 03:08:26;;;;;;;3.28;1.60;;;11.80;99.90;;;;;;4845544;29;20181;-86
2024/04/06 03:10:52;;;;;;;2.22;1.60;;;11.80;99.90;;;;;;4862204;29;20245;-87
2024/04/06 03:13:19;;;;;;;4.57;1.52;;;11.80;99.90;;;;;;4862174;29;20180;-84
2024/04/06 03:15:44;;;;;;;5.03;1.45;;;11.80;99.90;;;;;;4862059;29;20177;-82
2024/04/06 03:18:12;;;;;;;3.58;1.10;;;11.90;99.90;;;;;;4861871;29;20255;-83
2024/04/06 03:20:38;;;;;;;2.97;1.45;;;11.80;99.90;;;;;;4861969;29;20203;-86
2024/04/06 03:23:05;;;;;;;3.55;1.65;;;11.80;99.90;;;;;;4861372;29;20260;-83
2024/04/06 03:25:33;;;;;;;3.58;1.60;;;11.90;99.90;;;;;;4847976;29;20188;-84
2024/04/06 03:27:59;;;;;;;2.67;1.52;;;11.80;99.90;;;;;;4865136;29;20193;-86
2024/04/06 03:30:28;;;;;;;4.95;1.50;;;11.80;99.90;;;;;;4848584;29;20198;-84
2024/04/06 03:32:54;;;;;;;1.80;1.30;;;11.90;99.90;;;;;;4848202;29;20275;-88
2024/04/06 03:35:20;;;;;;;3.63;1.40;;;11.80;99.90;;;;;;4864790;29;20271;-87
2024/04/06 03:37:50;;;;;;;4.40;1.50;;;11.80;99.90;;;;;;4865153;29;20199;-87
2024/04/06 03:40:16;;;;;;;3.00;1.52;;;11.80;99.90;;;;;;4864722;29;20207;-85
2024/04/06 03:42:43;;;;;;;1.75;1.10;;;11.80;99.90;;;;;;4847971;29;20648;-85
2024/04/06 03:45:11;;;;;;;4.07;1.23;;;11.80;99.90;;;;;;4864738;29;20225;-86
2024/04/06 03:47:38;;;;;;;2.40;1.30;;;11.80;99.90;;;;;;4864060;29;20185;-88
2024/04/06 03:50:04;;;;;;;3.67;1.58;;;11.70;99.90;;;;;;4864718;29;20169;-83
2024/04/06 03:52:30;;;;;;;4.05;1.55;;;11.70;99.90;;;;;;4847937;29;20180;-87
2024/04/06 03:54:55;;;;;;;2.67;1.27;;;11.70;99.90;;;;;;4864556;29;20192;-85
2024/04/06 03:57:21;;;;;;;3.00;1.42;;;11.70;99.90;;;;;;4864476;29;20193;-88
2024/04/06 03:59:46;;;;;;;2.97;1.20;;;11.70;99.90;;;;;;4847943;29;20621;-85
2024/04/06 04:02:12;;;;;;;2.33;1.30;;;11.70;99.90;;;;;;4847029;29;20279;-83
2024/04/06 04:04:38;;;;;;;2.47;1.50;;;11.70;99.90;;;;;;4864006;29;20185;-81
2024/04/06 04:07:03;;;;;;;4.65;1.60;;;11.70;99.90;;;;;;4864205;29;20643;-84
2024/04/06 04:09:29;;;;;;;2.13;1.30;;;11.70;99.90;;;;;;4847534;29;20196;-85
2024/04/06 04:11:55;;;;;;;2.75;1.30;;;11.70;99.90;;;;;;4864153;29;20185;-82
2024/04/06 04:14:21;;;;;;;2.00;1.40;;;11.70;99.90;;;;;;4864106;29;20177;-83
2024/04/06 04:16:47;;;;;;;2.70;1.35;;;11.70;99.90;;;;;;4847319;29;20189;-84
2024/04/06 04:19:12;;;;;;;3.38;1.50;;;11.70;99.90;;;;;;4847706;29;20203;-83
2024/04/06 04:21:38;;;;;;;2.35;1.48;;;11.80;99.90;;;;;;4864021;29;20700;-83
2024/04/06 04:24:07;;;;;;;3.13;1.70;;;11.80;99.90;;;;;;4863925;29;20188;-86
2024/04/06 04:26:32;;;;;;;3.55;1.67;;;11.80;99.90;;;;;;4847963;29;20275;-85
2024/04/06 04:28:59;;;;;;;3.65;1.50;;;11.80;99.90;;;;;;4864024;29;20263;-89
2024/04/06 04:31:25;;;;;;;4.35;1.85;;;11.80;99.90;;;;;;4863723;29;20192;-84
2024/04/06 04:33:50;;;;;;;5.70;1.75;;;11.80;99.90;;;;;;4864276;29;20184;-81
2024/04/06 04:36:16;;;;;;;4.88;1.85;;;11.90;99.90;;;;;;4863290;29;20184;-87
2024/04/06 04:38:42;;;;;;;3.72;1.80;;;11.80;99.90;;;;;;4863838;29;20280;-87
2024/04/06 04:41:09;;;;;;;10.50;1.80;;;11.90;99.90;;;;;;4863482;29;20216;-83
2024/04/06 04:43:35;;;;;;;6.60;1.95;;;11.80;99.90;;;;;;4847207;29;20196;-89
2024/04/06 04:46:01;;;;;;;4.35;2.03;;;11.80;99.90;;;;;;4863349;29;20563;-83
2024/04/06 04:48:50;;;;;;;6.22;2.13;;;11.80;99.90;;;;;;4862923;29;20200;-84
2024/04/06 04:51:16;;;;;;;3.45;1.50;;;11.80;99.90;;;;;;4847409;29;20309;-84
2024/04/06 04:53:42;;;;;;;4.70;1.70;;;11.80;99.90;;;;;;4863328;29;20279;-82
2024/04/06 04:56:08;;;;;;;5.32;1.67;;;11.90;99.90;;;;;;4863497;29;20548;-87
2024/04/06 04:58:33;;;;;;;3.83;1.85;;;11.90;99.90;;;;;;4847029;29;20225;-88
2024/04/06 05:00:59;;;;;;;6.32;1.80;;;11.90;99.90;;;;;;4846370;29;20293;-87
2024/04/06 05:03:24;;;;;;;2.28;1.52;;;11.90;99.90;;;;;;4863438;29;20201;-88
2024/04/06 05:05:53;;;;;;;4.30;1.70;;;11.90;99.90;;;;;;4847221;29;20261;-87
2024/04/06 05:08:19;;;;;;;4.50;1.73;;;12.00;99.90;;;;;;4863834;29;20173;-89
2024/04/06 05:10:45;;;;;;;3.88;1.67;;;12.00;99.90;;;;;;4862909;29;20201;-89
2024/04/06 05:13:11;;;;;;;2.85;1.27;;;12.00;99.90;;;;;;4847238;29;20509;-88
2024/04/06 05:15:36;;;;;;;2.15;1.25;;;12.10;99.90;;;;;;4863128;29;20195;-90
2024/04/06 05:18:04;;;;;;;4.43;1.77;;;12.10;99.90;;;;;;4863372;29;20263;-88
2024/04/06 05:20:30;;;;;;;6.43;1.45;;;12.10;99.90;;;;;;4863163;29;20213;-85
2024/04/06 05:22:56;;;;;;;4.15;1.55;;;12.10;99.90;;;;;;4863107;29;20172;-86
2024/04/06 05:25:22;;;;;;;2.63;1.40;;;12.20;99.90;;;;;;4846504;29;20185;-87
2024/04/06 05:27:49;;;;;;;3.38;1.58;;;12.20;99.90;;;;;;4845636;29;20278;-86
2024/04/06 05:30:15;;;;;;;2.47;1.58;;;12.20;99.90;;;;;;4863612;29;20687;-86
2024/04/06 05:32:41;;;;;;;3.25;1.48;;;12.20;99.90;;;;;;4862653;29;20313;-82
2024/04/06 05:35:09;;;;;;;2.20;1.50;;;12.20;99.90;;;;;;4862507;29;20184;-82
2024/04/06 05:37:34;;;;;;;3.72;1.45;;;12.30;99.90;;;;;;4845767;29;20196;-82
2024/04/06 05:40:00;;;;;;;2.70;1.50;;;12.30;99.90;;;;;;4845711;29;20541;-82
2024/04/06 05:42:27;;;;;;;3.05;1.60;;;12.30;99.90;;;;;;4845757;29;20655;-82
2024/04/06 05:44:53;;;;;;;6.07;1.27;;;12.40;99.90;;;;;;4862039;29;20249;-83
2024/04/06 05:47:18;;;;;;;2.85;1.52;;;12.40;99.90;;;;;;4862194;29;20561;-83
2024/04/06 05:49:45;;;;;;;3.95;2.22;;;12.40;99.90;;;;;;4862217;29;20637;-83
2024/04/06 05:52:11;;;;;;;3.42;1.60;;;12.50;99.90;;;;;;4845910;29;20185;-83
2024/04/06 05:54:36;;;;;;;4.10;1.70;;;12.50;99.90;;;;;;4861856;29;20212;-82
2024/04/06 05:57:03;;;;;;;3.05;1.20;;;12.60;99.90;;;;;;4862429;29;20183;-83
2024/04/06 05:59:29;;;;;;;3.88;1.80;;;12.60;99.90;;;;;;4862081;29;20181;-87
2024/04/06 06:01:55;;;;;;;2.88;1.65;;;12.60;99.90;;;;;;4845901;29;20224;-84
2024/04/06 06:04:21;;;;;;;3.45;1.70;;;12.70;99.90;;;;;;4862267;29;20180;-85
2024/04/06 06:06:47;;;;;;;3.30;1.23;;;12.70;99.90;;;;;;4845641;29;20240;-84
2024/04/06 06:09:12;;;;;;;4.18;1.45;;;12.70;99.90;;;;;;4845659;29;20184;-84
2024/04/06 06:11:38;;;;;;;2.85;1.27;;;12.80;99.90;;;;;;4845759;29;20191;-87
2024/04/06 06:14:04;;;;;;;4.05;1.67;;;12.80;99.90;;;;;;4862007;29;20173;-84
2024/04/06 06:16:29;;;;;;;3.33;1.50;;;12.90;99.90;;;;;;4861588;29;20196;-84
2024/04/06 06:18:55;;;;;;;3.53;1.42;;;12.90;99.90;;;;;;4862571;29;20177;-83
2024/04/06 06:21:21;;;;;;;3.05;1.40;;;12.90;99.90;;;;;;4845354;29;20219;-85
2024/04/06 06:23:46;;;;;;;4.72;1.60;;;13.00;99.90;;;;;;4845802;29;20184;-86
2024/04/06 06:26:12;;;;;;;4.57;1.30;;;13.00;99.90;;;;;;4845799;29;20617;-83
2024/04/06 06:28:37;;;;;;;3.47;1.40;;;13.00;99.90;;;;;;4862004;29;20180;-86
2024/04/06 06:31:04;;;;;;;5.78;1.40;;;13.10;99.90;;;;;;4845174;29;20199;-83
2024/04/06 06:33:30;;;;;;;4.57;1.63;;;13.10;99.90;;;;;;4845317;29;20185;-85
2024/04/06 06:35:55;;;;;;;6.38;1.60;;;13.10;99.90;;;;;;4845507;29;20283;-84
2024/04/06 06:38:21;;;;;;;3.17;1.30;;;13.10;99.90;;;;;;4862224;29;20256;-86
2024/04/06 06:40:49;;;;;;;2.28;1.27;;;13.20;99.90;;;;;;4845544;29;20244;-82
2024/04/06 06:43:14;;;;;;;2.63;1.70;;;13.30;99.90;;;;;;4845550;29;20742;-86
2024/04/06 06:45:40;;;;;;;7.10;1.67;;;13.40;99.90;;;;;;4845299;29;20211;-83
2024/04/06 06:48:06;;;;;;;4.78;1.50;;;13.70;99.90;;;;;;4862175;29;20180;-87
2024/04/06 06:50:31;;;;;;;7.05;2.20;;;13.90;99.90;;;;;;4845461;29;20689;-83
2024/04/06 06:52:57;;;;;;;3.00;1.77;;;14.00;99.90;;;;;;4862003;29;20217;-84
2024/04/06 06:55:23;;;;;;;4.70;2.05;;;14.10;99.90;;;;;;4862344;29;20571;-85
2024/04/06 06:57:48;;;;;;;2.60;1.58;;;14.10;99.90;;;;;;4845648;29;20271;-88
2024/04/06 07:00:17;;;;;;;5.00;1.80;;;14.20;99.90;;;;;;4848114;29;20189;-86
2024/04/06 07:02:43;;;;;;;2.15;1.30;;;14.30;99.90;;;;;;4848454;29;20196;-86
2024/04/06 07:05:08;;;;;;;4.32;1.58;;;14.40;99.90;;;;;;4849031;29;20242;-90
2024/04/06 07:07:34;;;;;;;4.03;1.55;;;14.60;99.90;;;;;;4848765;29;20192;-87
2024/04/06 07:10:00;;;;;;;5.15;1.65;;;14.80;99.90;;;;;;4865401;29;20245;-83
2024/04/06 07:12:26;;;;;;;5.32;1.98;;;15.10;99.90;;;;;;4865333;29;20176;-91
2024/04/06 07:14:52;;;;;;;2.78;1.30;;;15.30;99.90;;;;;;4848401;29;20231;-90
2024/04/06 07:17:18;;;;;;;2.88;1.33;;;15.40;99.90;;;;;;4848902;29;20275;-88
2024/04/06 07:19:45;;;;;;;4.32;1.50;;;15.50;99.90;;;;;;4848792;29;20279;-91
2024/04/06 07:22:10;;;;;;;6.82;1.30;;;15.70;99.90;;;;;;4865257;29;20208;-83
2024/04/06 07:24:36;;;;;;;5.72;1.58;;;15.70;99.90;;;;;;4863731;29;20181;-84
2024/04/06 07:27:02;;;;;;;3.40;1.17;;;15.80;99.90;;;;;;4863921;29;20189;-85
2024/04/06 07:29:29;;;;;;;3.65;1.52;;;15.80;99.90;;;;;;4863833;29;20652;-87
2024/04/06 07:31:55;;;;;;;1.90;1.20;;;15.80;99.90;;;;;;4863938;29;20188;-83
2024/04/06 07:34:21;;;;;;;6.57;1.50;;;15.80;99.90;;;;;;4865009;29;20213;-85
2024/04/06 07:36:46;;;;;;;2.65;1.05;;;15.80;99.90;;;;;;4864771;29;20214;-88
2024/04/06 07:39:13;;;;;;;3.55;1.10;;;15.90;99.90;;;;;;4863591;29;20185;-83
2024/04/06 07:41:38;;;;;;;3.25;1.20;;;16.00;99.90;;;;;;4863415;29;20231;-83
2024/04/06 07:44:04;;;;;;;2.55;1.20;;;16.00;99.90;;;;;;4862415;29;20181;-84
2024/04/06 07:46:30;;;;;;;4.32;1.15;;;16.00;99.90;;;;;;4862650;29;20242;-84
2024/04/06 07:48:55;;;;;;;3.95;0.88;;;16.00;99.90;;;;;;4864481;29;20172;-84
2024/04/06 07:51:21;;;;;;;1.88;0.98;;;16.00;99.90;;;;;;4847921;29;20684;-83
2024/04/06 07:53:46;;;;;;;2.60;1.30;;;16.00;99.90;;;;;;4864236;29;20176;-85
2024/04/06 07:56:12;;;;;;;2.28;1.15;;;16.00;99.90;;;;;;4847159;29;20184;-85
2024/04/06 07:58:38;;;;;;;2.78;1.13;;;16.10;99.90;;;;;;4846662;29;20191;-86
2024/04/06 08:01:04;;;;;;;3.25;1.13;;;16.20;99.90;;;;;;4846408;29;20221;-83
2024/04/06 08:03:30;;;;;;;4.88;1.30;;;16.30;99.90;;;;;;4862696;29;20173;-83
2024/04/06 08:05:59;;;;;;;3.72;1.00;;;16.40;99.90;;;;;;4861684;29;20244;-84
2024/04/06 08:08:25;;;;;;;5.18;0.90;;;16.60;99.90;;;;;;4845944;29;20275;-82
2024/04/06 08:10:51;;;;;;;3.40;1.13;;;16.60;99.90;;;;;;4844830;29;20279;-83
2024/04/06 08:13:17;;;;;;;3.78;1.20;;;16.60;99.90;;;;;;4846046;29;20191;-84
2024/04/06 08:15:42;;;;;;;2.10;0.93;;;16.60;99.90;;;;;;4846150;29;20252;-83
2024/04/06 08:18:08;;;;;;;6.88;0.82;;;16.60;99.90;;;;;;4847294;29;20203;-85
2024/04/06 08:20:34;;;;;;;1.40;0.80;;;16.50;99.90;;;;;;4847227;29;20521;-83
2024/04/06 08:22:59;;;;;;;1.90;0.82;;;16.50;99.90;;;;;;4863765;29;20181;-82
2024/04/06 08:25:25;;;;;;;2.28;0.98;;;16.60;99.90;;;;;;4843852;29;20211;-83
2024/04/06 08:27:50;;;;;;;3.05;1.20;;;16.80;99.90;;;;;;4862390;29;20217;-84
2024/04/06 08:30:17;;;;;;;2.28;1.02;;;17.00;99.90;;;;;;4863685;29;20251;-84
2024/04/06 08:32:45;;;;;;;2.38;0.80;;;17.30;99.90;;;;;;4847004;29;20212;-83
2024/04/06 08:35:17;;;;;;;2.10;0.80;;;17.50;99.90;;;;;;4846219;29;20586;-84
2024/04/06 08:37:42;;;;;;;1.90;0.88;;;17.70;99.90;;;;;;4847061;29;20620;-84
2024/04/06 08:40:12;;;;;;;1.60;0.90;;;17.80;99.90;;;;;;4846892;29;20181;-84
2024/04/06 08:42:43;;;;;;;5.80;1.10;;;17.90;99.90;;;;;;4863406;29;20660;-84
2024/04/06 08:45:09;;;;;;;2.85;0.93;;;17.90;99.90;;;;;;4863485;29;20173;-84
2024/04/06 08:47:36;;;;;;;1.75;0.70;;;17.80;99.90;;;;;;4864085;29;20181;-86
2024/04/06 08:50:06;;;;;;;3.55;0.80;;;17.80;99.90;;;;;;4847038;29;20205;-87
2024/04/06 08:52:38;;;;;;;3.10;0.90;;;17.70;99.90;;;;;;4847245;29;20184;-87
2024/04/06 08:55:08;;;;;;;2.28;0.88;;;17.70;99.90;;;;;;4864146;29;20511;-83
2024/04/06 08:57:35;;;;;;;2.90;1.10;;;17.70;99.90;;;;;;4863934;29;20653;-86
2024/04/06 09:00:12;;;;;;;2.47;1.00;;;17.70;99.90;;;;;;4863980;29;20180;-90
2024/04/06 09:02:38;;;;;;;2.17;1.10;;;17.70;99.90;;;;;;4864117;29;20177;-88
2024/04/06 09:05:05;;;;;;;3.50;1.60;;;17.80;99.90;;;;;;4847102;29;20225;-85
2024/04/06 09:07:31;;;;;;;4.60;1.60;;;18.00;99.90;;;;;;4863863;29;20195;-89
2024/04/06 09:10:11;;;;;;;4.72;1.95;;;18.10;99.90;;;;;;4864006;29;20177;-88
2024/04/06 09:12:37;;;;;;;3.90;1.80;;;18.20;99.90;;;;;;4847453;29;20177;-89
2024/04/06 09:15:02;;;;;;;7.28;2.13;;;18.30;99.90;;;;;;4847216;29;20218;-86
2024/04/06 09:17:29;;;;;;;4.97;1.80;;;18.40;99.90;;;;;;4846559;29;20189;-86
2024/04/06 09:19:55;;;;;;;5.75;2.35;;;18.40;99.90;;;;;;4862564;29;20567;-84
2024/04/06 09:22:20;;;;;;;6.40;1.90;;;18.50;99.90;;;;;;4845906;29;20227;-85
2024/04/06 09:24:46;;;;;;;5.95;2.08;;;18.60;99.90;;;;;;4846394;29;20207;-85
2024/04/06 09:27:16;;;;;;;2.83;1.63;;;18.70;99.90;;;;;;4846245;29;20527;-85
2024/04/06 09:29:47;;;;;;;4.43;2.22;;;18.70;99.90;;;;;;4846209;29;20917;-84
2024/04/06 09:32:16;;;;;;;3.88;1.70;;;18.70;99.90;;;;;;4846162;29;20172;-85
2024/04/06 09:34:52;;;;;;;2.88;1.45;;;18.80;99.90;;;;;;4862303;29;20187;-85
2024/04/06 09:37:39;;;;;;;7.70;2.22;;;18.80;99.90;;;;;;4862404;29;20184;-84
2024/04/06 09:40:08;;;;;;;4.75;1.45;;;19.00;99.90;;;;;;4833305;29;20280;-87
2024/04/06 09:42:36;;;;;;;4.65;1.60;;;19.30;99.90;;;;;;4827672;29;20280;-84
2024/04/06 09:45:04;;;;;;;2.97;1.23;;;19.50;99.90;;;;;;4827745;29;20181;-84
2024/04/06 09:47:31;;;;;;;5.75;1.25;;;19.60;99.90;;;;;;4828007;29;20181;-84
2024/04/06 09:50:00;;;;;;;1.95;0.90;;;19.80;99.90;;;;;;4843874;29;20177;-83
2024/04/06 09:52:27;;;;;;;2.65;0.75;;;19.90;99.90;;;;;;4827551;29;20527;-84
2024/04/06 09:54:54;;;;;;;2.50;0.70;;;20.00;99.90;;;;;;4827736;29;20202;-83
2024/04/06 09:57:21;;;;;;;15.77;4.47;;;20.00;99.90;;;;;;4827829;29;20192;-83
2024/04/06 09:59:47;;;;;;;4.07;1.42;;;20.00;99.90;;;;;;4843816;29;20186;-87
2024/04/06 10:02:23;;;;;;;2.78;1.00;;;20.00;99.90;;;;;;4836180;29;20231;-86
2024/04/06 10:04:56;;;;;;;4.28;1.70;;;20.20;99.90;;;;;;4861766;29;20191;-85
2024/04/06 10:07:29;;;;;;;2.80;0.70;;;20.20;99.90;;;;;;4845613;29;20184;-84
2024/04/06 10:10:05;;;;;;;1.55;0.77;;;20.20;99.90;;;;;;4862321;29;20224;-84
2024/04/06 10:12:42;;;;;;;2.33;0.90;;;20.30;99.90;;;;;;4861762;29;20192;-84
2024/04/06 10:15:11;;;;;;;2.53;0.80;;;20.50;99.90;;;;;;4845402;29;20616;-85
2024/04/06 10:17:48;;;;;;;1.55;0.70;;;20.60;99.90;;;;;;4860895;29;20189;-87
2024/04/06 10:20:17;;;;;;;2.08;0.80;;;20.60;99.90;;;;;;4843520;29;20676;-85
2024/04/06 10:22:44;;;;;;;1.75;0.80;;;20.70;99.90;;;;;;4843937;29;20185;-85
2024/04/06 10:25:10;;;;;;;2.95;0.80;;;20.60;99.90;;;;;;4843902;29;20189;-84
2024/04/06 10:27:39;;;;;;;2.13;0.68;;;20.50;99.90;;;;;;4860940;29;20632;-86
2024/04/06 10:30:05;;;;;;;2.15;0.80;;;20.40;99.90;;;;;;4845404;29;20173;-84
2024/04/06 10:32:33;;;;;;;3.00;0.70;;;20.20;99.90;;;;;;4830104;29;20194;-85
2024/04/06 10:35:03;;;;;;;2.50;0.85;;;20.10;99.90;;;;;;4847506;29;20189;-84
2024/04/06 10:37:30;;;;;;;2.25;1.08;;;20.30;99.90;;;;;;4865492;29;20179;-85
2024/04/06 10:39:56;;;;;;;5.13;1.00;;;20.50;99.90;;;;;;4849016;29;20582;-84
2024/04/06 10:42:28;;;;;;;2.55;1.00;;;20.80;99.90;;;;;;4865418;29;20273;-85
2024/04/06 10:44:54;;;;;;;5.70;1.20;;;21.00;99.90;;;;;;4849115;29;20210;-85
2024/04/06 10:47:20;;;;;;;1.48;0.80;;;21.20;99.90;;;;;;4849191;29;20609;-85
2024/04/06 10:49:50;;;;;;;2.80;0.75;;;21.40;99.90;;;;;;4848134;29;20188;-85
2024/04/06 10:52:16;;;;;;;3.83;0.98;;;21.50;99.90;;;;;;4848936;29;20180;-86
2024/04/06 10:54:42;;;;;;;4.63;1.17;;;21.50;99.90;;;;;;4848326;29;20271;-86
2024/04/06 10:57:07;;;;;;;3.10;1.00;;;21.40;99.90;;;;;;4848908;29;20232;-84
2024/04/06 10:59:33;;;;;;;3.40;1.25;;;21.60;99.90;;;;;;4864450;29;20251;-86
2024/04/06 11:02:00;;;;;;;4.03;1.15;;;21.80;99.90;;;;;;4865471;29;20223;-89
2024/04/06 11:04:25;;;;;;;2.53;0.95;;;21.70;99.90;;;;;;4846729;29;20629;-85
2024/04/06 11:06:51;;;;;;;3.67;1.10;;;21.70;99.90;;;;;;4863980;29;20236;-88
2024/04/06 11:09:17;;;;;;;2.22;1.13;;;21.60;99.90;;;;;;4859192;29;20778;-86
2024/04/06 11:11:43;;;;;;;2.45;0.80;;;21.60;99.90;;;;;;4850744;29;20197;-85
2024/04/06 11:14:08;;;;;;;2.97;1.23;;;21.70;99.90;;;;;;4860207;29;20184;-87
2024/04/06 11:16:36;;;;;;;4.15;0.90;;;21.80;99.90;;;;;;4850478;29;20184;-87
2024/04/06 11:19:01;;;;;;;5.53;1.20;;;21.90;99.90;;;;;;4864684;29;20188;-87
2024/04/06 11:21:27;;;;;;;3.17;1.25;;;22.00;99.90;;;;;;4864573;29;20212;-87
2024/04/06 11:23:53;;;;;;;3.53;1.35;;;22.10;99.90;;;;;;4857260;29;20188;-85
2024/04/06 11:26:22;;;;;;;3.75;1.48;;;22.40;99.90;;;;;;4847886;29;20184;-86
2024/04/06 11:28:47;;;;;;;3.58;1.27;;;22.60;99.90;;;;;;4847452;29;20187;-85
2024/04/06 11:31:16;;;;;;;7.00;1.90;;;22.70;99.90;;;;;;4854358;29;20249;-86
2024/04/06 11:33:42;;;;;;;3.38;1.75;;;22.80;99.90;;;;;;4864484;29;20971;-86
2024/04/06 11:36:09;;;;;;;5.13;1.55;;;23.10;99.90;;;;;;4850541;29;20192;-86
2024/04/06 11:38:34;;;;;;;6.72;2.00;;;23.20;99.90;;;;;;4864047;29;20187;-87
2024/04/06 11:41:00;;;;;;;2.42;1.40;;;23.40;99.90;;;;;;4852945;29;20645;-89
2024/04/06 11:43:26;;;;;;;5.93;1.90;;;23.50;99.90;;;;;;4854462;29;20627;-84
2024/04/06 11:45:52;;;;;;;3.85;1.55;;;23.70;99.90;;;;;;4864163;29;20172;-87
2024/04/06 11:48:18;;;;;;;4.75;1.42;;;23.80;99.90;;;;;;4852537;29;20205;-91
2024/04/06 11:50:44;;;;;;;3.67;1.67;;;23.60;99.90;;;;;;4864575;29;20244;-96
2024/04/06 11:53:10;;;;;;;7.15;1.50;;;23.60;99.90;;;;;;4879644;29;20539;-95
2024/04/06 11:55:38;;;;;;;2.47;0.80;;;23.60;99.90;;;;;;4855961;29;20200;-94
2024/04/06 11:58:04;;;;;;;3.13;0.80;;;23.60;99.90;;;;;;4850613;29;20226;-96
2024/04/06 12:00:32;;;;;;;4.10;1.08;;;23.70;99.90;;;;;;4868136;29;20209;-88
2024/04/06 12:02:59;;;;;;;2.47;0.80;;;23.80;99.90;;;;;;4849818;29;20290;-96
2024/04/06 12:05:24;;;;;;;1.88;0.73;;;23.90;99.90;;;;;;4849441;29;20677;-96
2024/04/06 12:07:51;;;;;;;3.05;0.85;;;24.00;99.90;;;;;;4867192;29;20277;-96
2024/04/06 12:10:17;;;;;;;3.95;0.80;;;24.10;99.90;;;;;;4849044;29;20185;-93
2024/04/06 12:12:45;;;;;;;1.40;0.80;;;24.10;99.90;;;;;;4847986;29;20248;-94
2024/04/06 12:15:11;;;;;;;1.23;0.60;;;24.10;99.90;;;;;;4865385;29;20181;-96
2024/04/06 12:17:37;;;;;;;3.22;1.10;;;24.20;99.90;;;;;;4865309;29;20201;-96
2024/04/06 12:20:03;;;;;;;3.15;1.10;;;24.20;99.90;;;;;;4849712;29;20195;-93
2024/04/06 12:22:30;;;;;;;4.40;1.20;;;24.30;99.90;;;;;;4848493;29;20311;-95
2024/04/06 12:24:55;;;;;;;2.72;0.80;;;24.30;99.90;;;;;;4848740;29;20203;-93
2024/04/06 12:27:22;;;;;;;2.42;1.23;;;24.40;99.90;;;;;;4847496;29;20625;-92
2024/04/06 12:29:49;;;;;;;1.23;0.70;;;24.40;99.90;;;;;;4864173;29;20259;-96
2024/04/06 12:32:15;;;;;;;3.22;1.00;;;24.40;99.90;;;;;;4848069;29;20180;-94
2024/04/06 12:34:40;;;;;;;3.47;0.93;;;24.40;99.90;;;;;;4864710;29;20210;-96
2024/04/06 12:37:10;;;;;;;4.28;0.93;;;24.30;99.90;;;;;;4848144;29;20208;-92
2024/04/06 12:39:42;;;;;;;1.75;0.90;;;24.30;99.90;;;;;;4864467;29;20192;-91
2024/04/06 12:42:12;;;;;;;1.35;0.90;;;24.30;99.90;;;;;;4847444;29;20292;-93
2024/04/06 12:44:38;;;;;;;1.80;0.70;;;24.30;99.90;;;;;;4864353;29;20256;-92
2024/04/06 12:47:04;;;;;;;2.15;0.98;;;24.40;99.90;;;;;;4847559;29;20271;-92